Time;durP1;ratioP1;P1;durP2;ratioP2;P2;SDS_P1;SDS_P2;PMS_P1;PMS_P2;Temp;Humidity;BMP_temperature;BMP_pressure;BME280_temperature;BME280_humidity;BME280_pressure;Samples;Min_cycle;Max_cycle;Signal;HPM_P1;HPM_P2
2024/04/14 00:09:33;;;;;;;;;;;19.10;99.90;;;;;;6752523;87;20066;-80
2024/04/14 00:19:34;;;;;;;;;;;19.00;99.90;;;;;;6754420;87;20073;-80
2024/04/14 00:29:34;;;;;;;;;;;18.90;99.90;;;;;;6761389;87;20045;-79
2024/04/14 00:39:35;;;;;;;;;;;18.90;99.90;;;;;;6761597;88;20124;-80
2024/04/14 00:49:36;;;;;;;;;;;18.80;99.90;;;;;;6768158;87;20050;-77
2024/04/14 00:59:36;;;;;;;;;;;18.40;99.90;;;;;;6770518;87;20061;-79
2024/04/14 01:09:37;;;;;;;;;;;18.20;99.90;;;;;;6759514;87;20074;-80
2024/04/14 01:19:37;;;;;;;;;;;18.00;99.90;;;;;;6758066;87;20259;-79
2024/04/14 01:29:38;;;;;;;;;;;17.80;99.90;;;;;;6757698;87;20110;-79
2024/04/14 01:39:39;;;;;;;;;;;17.40;99.90;;;;;;6757176;87;20053;-78
2024/04/14 01:49:39;;;;;;;;;;;17.20;99.90;;;;;;6758349;87;20102;-80
2024/04/14 01:59:40;;;;;;;;;;;16.90;99.90;;;;;;6752713;87;20206;-79
2024/04/14 02:09:40;;;;;;;;;;;16.70;99.90;;;;;;6721277;88;20142;-80
2024/04/14 02:19:40;;;;;;;;;;;16.50;99.90;;;;;;6722304;88;20064;-79
2024/04/14 02:29:41;;;;;;;;;;;16.40;99.90;;;;;;6752673;87;20053;-79
2024/04/14 02:39:41;;;;;;;;;;;16.10;99.90;;;;;;6759526;87;20059;-81
2024/04/14 02:49:42;;;;;;;;;;;15.80;99.90;;;;;;6757632;87;20142;-78
2024/04/14 02:59:42;;;;;;;;;;;15.60;99.90;;;;;;6750068;87;20119;-78
2024/04/14 03:09:43;;;;;;;;;;;15.40;99.90;;;;;;6752086;88;20061;-80
2024/04/14 03:30:45;;;;;;;;;;;15.00;99.90;;;;;;6649282;89;20056;-79
2024/04/14 03:40:51;;;;;;;;;;;14.90;99.90;;;;;;6666709;89;20124;-77
2024/04/14 03:50:51;;;;;;;;;;;14.70;99.90;;;;;;6671671;89;20054;-80
2024/04/14 04:00:52;;;;;;;;;;;14.60;99.90;;;;;;6677814;89;20143;-78
2024/04/14 04:11:03;;;;;;;;;;;14.50;99.90;;;;;;6668608;89;20053;-78
2024/04/14 04:21:07;;;;;;;;;;;14.20;99.90;;;;;;6651826;89;20096;-78
2024/04/14 04:31:14;;;;;;;;;;;14.00;99.90;;;;;;6647617;88;20502;-79
2024/04/14 04:41:14;;;;;;;;;;;13.80;99.90;;;;;;6647536;89;20060;-79
2024/04/14 04:51:14;;;;;;;;;;;13.70;99.90;;;;;;6654885;89;20197;-78
2024/04/14 05:01:15;;;;;;;;;;;13.70;99.90;;;;;;6652066;89;20143;-80
2024/04/14 05:11:15;;;;;;;;;;;13.60;99.90;;;;;;6661269;89;20098;-80
2024/04/14 05:21:16;;;;;;;;;;;13.50;99.90;;;;;;6668047;89;20073;-82
2024/04/14 05:31:17;;;;;;;;;;;13.60;99.90;;;;;;6675507;89;20763;-81
2024/04/14 05:41:18;;;;;;;;;;;13.60;99.90;;;;;;6673185;89;20118;-80
2024/04/14 05:51:19;;;;;;;;;;;13.70;99.90;;;;;;6660302;89;20168;-79
2024/04/14 06:01:20;;;;;;;;;;;13.70;99.90;;;;;;6679053;87;20084;-79
2024/04/14 06:11:20;;;;;;;;;;;13.80;99.90;;;;;;6674813;89;20209;-80
2024/04/14 06:21:21;;;;;;;;;;;13.90;99.90;;;;;;6674677;89;20065;-80
2024/04/14 06:31:21;;;;;;;;;;;14.20;99.90;;;;;;6675665;89;20131;-76
2024/04/14 06:41:23;;;;;;;;;;;14.50;99.90;;;;;;6680014;89;20143;-80
2024/04/14 06:51:24;;;;;;;;;;;14.80;99.90;;;;;;6679505;89;20170;-80
2024/04/14 07:01:24;;;;;;;;;;;15.00;99.90;;;;;;6673210;89;20067;-80
2024/04/14 07:11:25;;;;;;;;;;;15.20;99.90;;;;;;6686463;89;20188;-79
2024/04/14 07:21:25;;;;;;;;;;;15.60;99.90;;;;;;6676392;89;20093;-78
2024/04/14 07:31:26;;;;;;;;;;;15.70;99.90;;;;;;6672637;89;20068;-81
2024/04/14 07:41:26;;;;;;;;;;;15.90;99.90;;;;;;6672774;89;20174;-80
2024/04/14 07:51:26;;;;;;;;;;;16.40;99.90;;;;;;6673143;89;20071;-80
2024/04/14 08:01:27;;;;;;;;;;;16.90;99.90;;;;;;6674692;89;20068;-79
2024/04/14 08:11:28;;;;;;;;;;;17.40;99.90;;;;;;6659483;89;20231;-80
2024/04/14 08:21:28;;;;;;;;;;;18.10;99.90;;;;;;6667166;89;20030;-79
2024/04/14 08:31:28;;;;;;;;;;;18.30;99.90;;;;;;6659635;89;20081;-80
2024/04/14 08:41:31;;;;;;;;;;;18.60;99.90;;;;;;6660735;89;20099;-80
2024/04/14 08:51:32;;;;;;;;;;;18.20;99.90;;;;;;6660425;89;20582;-80
2024/04/14 09:01:36;;;;;;;;;;;18.10;99.90;;;;;;6661401;89;20089;-81
2024/04/14 09:11:36;;;;;;;;;;;18.20;99.90;;;;;;6661564;89;20061;-81
2024/04/14 09:21:36;;;;;;;;;;;18.50;99.90;;;;;;6665576;89;20077;-82
2024/04/14 09:31:37;;;;;;;;;;;18.90;99.90;;;;;;6666826;89;20072;-82
2024/04/14 09:41:39;;;;;;;;;;;18.90;99.90;;;;;;6670624;89;20545;-82
2024/04/14 09:51:40;;;;;;;;;;;20.20;99.90;;;;;;6670557;89;20075;-83
2024/04/14 10:01:45;;;;;;;;;;;21.30;99.90;;;;;;6667511;89;20078;-82
2024/04/14 10:11:46;;;;;;;;;;;20.90;99.90;;;;;;6663079;88;20064;-82
2024/04/14 10:21:47;;;;;;;;;;;20.70;99.90;;;;;;6668767;89;20058;-82
2024/04/14 10:31:51;;;;;;;;;;;19.90;99.90;;;;;;6677443;87;20074;-80
2024/04/14 10:41:51;;;;;;;;;;;20.40;99.20;;;;;;6667140;88;20111;-78
2024/04/14 10:51:52;;;;;;;;;;;20.20;99.10;;;;;;6667543;88;21548;-78
2024/04/14 11:01:52;;;;;;;;;;;21.40;98.30;;;;;;6660210;89;20118;-79
2024/04/14 11:11:53;;;;;;;;;;;21.10;98.00;;;;;;6667027;89;20078;-80
2024/04/14 11:21:53;;;;;;;;;;;21.20;97.70;;;;;;6661527;89;20041;-78
2024/04/14 11:31:54;;;;;;;;;;;22.50;97.40;;;;;;6649826;89;20091;-77
2024/04/14 11:41:54;;;;;;;;;;;22.40;95.70;;;;;;6653363;89;20815;-77
2024/04/14 11:51:55;;;;;;;;;;;22.60;96.30;;;;;;6654650;89;20079;-78
2024/04/14 12:01:56;;;;;;;;;;;23.00;95.20;;;;;;6662272;88;20216;-77
2024/04/14 12:11:56;;;;;;;;;;;23.50;95.00;;;;;;6652863;88;20144;-76
2024/04/14 12:21:57;;;;;;;;;;;22.60;95.20;;;;;;6658463;88;20211;-75
2024/04/14 12:31:57;;;;;;;;;;;22.50;95.10;;;;;;6664137;88;20077;-75
2024/04/14 12:41:58;;;;;;;;;;;24.00;93.80;;;;;;6664839;88;20190;-76
2024/04/14 12:51:58;;;;;;;;;;;23.80;92.70;;;;;;6656644;88;20057;-76
2024/04/14 13:01:59;;;;;;;;;;;24.50;91.50;;;;;;6653024;89;20074;-76
2024/04/14 13:11:59;;;;;;;;;;;24.10;92.10;;;;;;6655740;88;20148;-75
2024/04/14 13:22:00;;;;;;;;;;;22.80;93.30;;;;;;6653660;88;20427;-75
2024/04/14 13:32:00;;;;;;;;;;;22.80;92.50;;;;;;6657988;88;20094;-75
2024/04/14 13:42:00;;;;;;;;;;;22.80;92.80;;;;;;6657491;88;20057;-76
2024/04/14 13:52:02;;;;;;;;;;;23.00;92.50;;;;;;6660710;88;20081;-75
2024/04/14 14:02:02;;;;;;;;;;;23.10;91.70;;;;;;6661782;88;20566;-77
2024/04/14 14:12:03;;;;;;;;;;;23.70;92.10;;;;;;6662033;88;20181;-76
2024/04/14 14:22:03;;;;;;;;;;;23.30;91.60;;;;;;6664515;88;20199;-77
2024/04/14 14:32:04;;;;;;;;;;;23.20;92.40;;;;;;6659817;88;20078;-74
2024/04/14 14:42:05;;;;;;;;;;;22.40;93.50;;;;;;6656387;88;20964;-76
2024/04/14 14:52:05;;;;;;;;;;;22.20;93.90;;;;;;6660799;88;20171;-76
2024/04/14 15:02:05;;;;;;;;;;;21.90;94.30;;;;;;6656590;89;20741;-77
2024/04/14 15:12:06;;;;;;;;;;;22.00;94.00;;;;;;6653753;88;20113;-76
2024/04/14 15:22:07;;;;;;;;;;;21.80;94.10;;;;;;6658553;88;20562;-76
2024/04/14 15:32:08;;;;;;;;;;;21.00;94.80;;;;;;6663845;88;20073;-77
2024/04/14 15:42:08;;;;;;;;;;;20.60;94.70;;;;;;6655491;88;20103;-77
2024/04/14 15:52:09;;;;;;;;;;;20.30;94.90;;;;;;6652953;88;20080;-77
2024/04/14 16:02:09;;;;;;;;;;;20.00;95.40;;;;;;6665255;88;20069;-77
2024/04/14 16:12:10;;;;;;;;;;;19.80;95.70;;;;;;6657874;88;20076;-77
2024/04/14 16:22:10;;;;;;;;;;;19.40;96.20;;;;;;6664584;88;20078;-77
2024/04/14 16:32:11;;;;;;;;;;;19.50;96.30;;;;;;6652792;88;20182;-77
2024/04/14 16:42:11;;;;;;;;;;;19.00;96.30;;;;;;6664827;88;20131;-80
2024/04/14 16:52:12;;;;;;;;;;;18.90;96.40;;;;;;6668822;89;20622;-78
2024/04/14 17:02:12;;;;;;;;;;;18.80;96.40;;;;;;6670848;88;20079;-80
2024/04/14 17:12:12;;;;;;;;;;;18.50;96.80;;;;;;6693684;88;20157;-81
2024/04/14 17:22:13;;;;;;;;;;;18.30;97.40;;;;;;6672049;89;20125;-80
2024/04/14 17:32:13;;;;;;;;;;;17.90;97.80;;;;;;6672579;89;20607;-80
2024/04/14 17:42:14;;;;;;;;;;;17.70;97.70;;;;;;6661854;89;20702;-82
2024/04/14 17:52:14;;;;;;;;;;;17.40;98.30;;;;;;6659362;89;20103;-81
2024/04/14 18:02:15;;;;;;;;;;;17.20;98.40;;;;;;6657137;89;20065;-80
2024/04/14 18:12:15;;;;;;;;;;;16.90;99.10;;;;;;6662930;89;20072;-80
2024/04/14 18:22:16;;;;;;;;;;;16.60;99.90;;;;;;6675013;89;20089;-80
2024/04/14 18:32:16;;;;;;;;;;;16.40;99.90;;;;;;6674786;89;20507;-81
2024/04/14 18:42:17;;;;;;;;;;;16.30;99.30;;;;;;6670614;89;20575;-80
2024/04/14 18:52:17;;;;;;;;;;;16.10;99.90;;;;;;6674160;89;20075;-80
2024/04/14 19:02:18;;;;;;;;;;;16.00;99.90;;;;;;6676745;89;20073;-81
2024/04/14 19:12:18;;;;;;;;;;;16.00;99.90;;;;;;6672772;89;20093;-81
2024/04/14 19:22:19;;;;;;;;;;;15.90;99.90;;;;;;6670733;89;20712;-81
2024/04/14 19:32:19;;;;;;;;;;;15.80;99.90;;;;;;6676371;89;20068;-81
2024/04/14 19:42:20;;;;;;;;;;;15.80;99.90;;;;;;6681725;89;20065;-86
2024/04/14 19:52:20;;;;;;;;;;;15.80;99.90;;;;;;6687066;87;20080;-83
2024/04/14 20:02:21;;;;;;;;;;;15.60;99.90;;;;;;6675775;89;20080;-83
2024/04/14 20:12:21;;;;;;;;;;;15.60;99.90;;;;;;6684232;88;20095;-81
2024/04/14 20:22:22;;;;;;;;;;;15.50;99.90;;;;;;6687452;89;20052;-82
2024/04/14 20:32:23;;;;;;;;;;;15.40;99.90;;;;;;6681376;88;20042;-81
2024/04/14 20:42:23;;;;;;;;;;;15.20;99.90;;;;;;6686473;87;20622;-80
2024/04/14 20:52:24;;;;;;;;;;;15.20;99.90;;;;;;6695163;87;20093;-80
2024/04/14 21:02:24;;;;;;;;;;;15.20;99.90;;;;;;6685626;88;20165;-80
2024/04/14 21:12:25;;;;;;;;;;;15.00;99.90;;;;;;6680573;88;20577;-79
2024/04/14 21:33:06;;;;;;;;;;;14.90;99.90;;;;;;6759731;87;20052;-79
2024/04/14 21:43:07;;;;;;;;;;;14.70;99.90;;;;;;6755689;88;20092;-78
2024/04/14 21:53:08;;;;;;;;;;;14.60;99.90;;;;;;6759929;87;20053;-78
2024/04/14 22:03:09;;;;;;;;;;;14.50;99.90;;;;;;6761755;87;20058;-78
2024/04/14 22:13:10;;;;;;;;;;;14.40;99.90;;;;;;6749898;88;20534;-78
2024/04/14 22:23:10;;;;;;;;;;;14.30;99.90;;;;;;6751422;87;20068;-78
2024/04/14 22:33:11;;;;;;;;;;;14.20;99.90;;;;;;6754072;87;20120;-78
2024/04/14 22:43:11;;;;;;;;;;;14.10;99.90;;;;;;6682823;88;20086;-78
2024/04/14 22:53:12;;;;;;;;;;;14.00;99.90;;;;;;6689486;88;20104;-78
2024/04/14 23:03:12;;;;;;;;;;;14.10;99.90;;;;;;6690140;88;20078;-78
2024/04/14 23:13:13;;;;;;;;;;;14.10;99.90;;;;;;6681921;89;20072;-78
2024/04/14 23:23:13;;;;;;;;;;;13.90;99.90;;;;;;6684395;88;20119;-78
2024/04/14 23:33:14;;;;;;;;;;;13.60;99.90;;;;;;6678310;88;20066;-78
2024/04/14 23:43:15;;;;;;;;;;;12.80;99.90;;;;;;6688809;87;20106;-77
2024/04/14 23:53:15;;;;;;;;;;;12.10;99.90;;;;;;6683049;88;20092;-77
